sensor_id;sensor_type;location;lat;lon;timestamp;pressure;altitude;pressure_sealevel;temperature;humidity
12215;BME280;6170;42.206;24.142;2023-04-07T00:02:05;98659.72;;;6.61;51.50
12215;BME280;6170;42.206;24.142;2023-04-07T00:04:32;98653.63;;;6.53;52.23
12215;BME280;6170;42.206;24.142;2023-04-07T00:06:59;98680.59;;;6.87;51.49
12215;BME280;6170;42.206;24.142;2023-04-07T00:09:25;98653.56;;;6.61;52.76
12215;BME280;6170;42.206;24.142;2023-04-07T00:11:52;98649.56;;;6.42;51.63
12215;BME280;6170;42.206;24.142;2023-04-07T00:14:20;98657.53;;;6.27;52.26
12215;BME280;6170;42.206;24.142;2023-04-07T00:16:47;98653.06;;;6.43;52.10
12215;BME280;6170;42.206;24.142;2023-04-07T00:19:16;98643.47;;;6.33;52.27
12215;BME280;6170;42.206;24.142;2023-04-07T00:21:43;98639.19;;;6.32;51.88
12215;BME280;6170;42.206;24.142;2023-04-07T00:24:10;98682.47;;;6.64;51.52
12215;BME280;6170;42.206;24.142;2023-04-07T00:26:37;98658.13;;;6.52;51.97
12215;BME280;6170;42.206;24.142;2023-04-07T00:29:04;98686.25;;;6.69;51.61
12215;BME280;6170;42.206;24.142;2023-04-07T00:31:31;98650.84;;;6.46;51.93
12215;BME280;6170;42.206;24.142;2023-04-07T00:33:58;98674.94;;;6.53;52.17
12215;BME280;6170;42.206;24.142;2023-04-07T00:36:26;98644.44;;;6.41;52.00
12215;BME280;6170;42.206;24.142;2023-04-07T00:38:53;98675.22;;;6.58;52.43
12215;BME280;6170;42.206;24.142;2023-04-07T00:41:20;98652.59;;;6.39;51.84
12215;BME280;6170;42.206;24.142;2023-04-07T00:43:48;98657.75;;;6.41;52.33
12215;BME280;6170;42.206;24.142;2023-04-07T00:46:16;98653.09;;;6.57;52.13
12215;BME280;6170;42.206;24.142;2023-04-07T00:48:43;98652.28;;;6.34;51.94
12215;BME280;6170;42.206;24.142;2023-04-07T00:51:11;98682.91;;;6.53;52.22
12215;BME280;6170;42.206;24.142;2023-04-07T00:53:40;98648.81;;;6.11;52.28
12215;BME280;6170;42.206;24.142;2023-04-07T00:56:07;98662.69;;;6.44;52.31
12215;BME280;6170;42.206;24.142;2023-04-07T00:58:34;98654.25;;;6.40;51.39
12215;BME280;6170;42.206;24.142;2023-04-07T01:01:05;98684.69;;;6.38;52.29
12215;BME280;6170;42.206;24.142;2023-04-07T01:03:41;98651.97;;;6.37;51.99
12215;BME280;6170;42.206;24.142;2023-04-07T01:06:13;98682.03;;;6.38;52.15
12215;BME280;6170;42.206;24.142;2023-04-07T01:08:48;98682.41;;;6.35;52.31
12215;BME280;6170;42.206;24.142;2023-04-07T01:11:23;98649.00;;;6.09;51.96
12215;BME280;6170;42.206;24.142;2023-04-07T01:13:51;98646.94;;;6.19;51.76
12215;BME280;6170;42.206;24.142;2023-04-07T01:16:26;98677.44;;;6.31;52.53
12215;BME280;6170;42.206;24.142;2023-04-07T01:18:56;98647.09;;;6.18;52.58
12215;BME280;6170;42.206;24.142;2023-04-07T01:21:26;98647.56;;;6.21;52.74
12215;BME280;6170;42.206;24.142;2023-04-07T01:24:19;98653.38;;;6.25;53.38
12215;BME280;6170;42.206;24.142;2023-04-07T01:26:59;98647.50;;;6.07;54.12
12215;BME280;6170;42.206;24.142;2023-04-07T01:29:35;98652.25;;;6.19;54.94
12215;BME280;6170;42.206;24.142;2023-04-07T01:32:05;98683.56;;;6.09;54.56
12215;BME280;6170;42.206;24.142;2023-04-07T01:34:34;98650.06;;;6.00;55.09
12215;BME280;6170;42.206;24.142;2023-04-07T01:37:03;98677.25;;;6.10;55.21
12215;BME280;6170;42.206;24.142;2023-04-07T01:39:31;98652.66;;;6.08;55.92
12215;BME280;6170;42.206;24.142;2023-04-07T01:41:58;98642.41;;;6.20;55.21
12215;BME280;6170;42.206;24.142;2023-04-07T01:44:27;98654.09;;;6.19;55.61
12215;BME280;6170;42.206;24.142;2023-04-07T01:46:56;98658.50;;;6.04;55.67
12215;BME280;6170;42.206;24.142;2023-04-07T01:49:24;98654.13;;;6.11;55.61
12215;BME280;6170;42.206;24.142;2023-04-07T01:51:52;98688.84;;;6.40;55.48
12215;BME280;6170;42.206;24.142;2023-04-07T01:54:20;98685.66;;;6.45;55.96
12215;BME280;6170;42.206;24.142;2023-04-07T01:56:47;98688.84;;;6.63;56.42
12215;BME280;6170;42.206;24.142;2023-04-07T01:59:15;98658.06;;;6.23;56.64
12215;BME280;6170;42.206;24.142;2023-04-07T02:01:43;98657.28;;;6.14;56.68
12215;BME280;6170;42.206;24.142;2023-04-07T02:04:17;98661.66;;;6.30;56.14
12215;BME280;6170;42.206;24.142;2023-04-07T02:06:52;98658.25;;;6.59;55.90
12215;BME280;6170;42.206;24.142;2023-04-07T02:09:21;98663.81;;;6.04;55.68
12215;BME280;6170;42.206;24.142;2023-04-07T02:11:52;98660.75;;;5.92;55.90
12215;BME280;6170;42.206;24.142;2023-04-07T02:14:21;98670.25;;;5.86;56.72
12215;BME280;6170;42.206;24.142;2023-04-07T02:16:49;98668.00;;;5.98;57.29
12215;BME280;6170;42.206;24.142;2023-04-07T02:19:18;98669.69;;;6.22;57.68
12215;BME280;6170;42.206;24.142;2023-04-07T02:21:47;98672.94;;;5.78;57.75
12215;BME280;6170;42.206;24.142;2023-04-07T02:24:19;98669.69;;;5.99;57.42
12215;BME280;6170;42.206;24.142;2023-04-07T02:26:46;98665.94;;;5.77;57.35
12215;BME280;6170;42.206;24.142;2023-04-07T02:29:13;98694.56;;;5.67;57.11
12215;BME280;6170;42.206;24.142;2023-04-07T02:31:40;98663.25;;;5.55;57.42
12215;BME280;6170;42.206;24.142;2023-04-07T02:34:07;98658.38;;;5.35;57.21
12215;BME280;6170;42.206;24.142;2023-04-07T02:36:36;98662.03;;;5.26;57.37
12215;BME280;6170;42.206;24.142;2023-04-07T02:39:03;98657.44;;;5.51;56.33
12215;BME280;6170;42.206;24.142;2023-04-07T02:41:30;98661.94;;;5.51;56.34
12215;BME280;6170;42.206;24.142;2023-04-07T02:43:57;98659.44;;;5.80;56.53
12215;BME280;6170;42.206;24.142;2023-04-07T02:46:24;98661.88;;;5.98;56.49
12215;BME280;6170;42.206;24.142;2023-04-07T02:48:51;98668.13;;;5.74;56.24
12215;BME280;6170;42.206;24.142;2023-04-07T02:51:18;98652.59;;;5.85;56.21
12215;BME280;6170;42.206;24.142;2023-04-07T02:53:46;98661.91;;;5.90;55.28
12215;BME280;6170;42.206;24.142;2023-04-07T02:56:14;98686.47;;;5.61;56.29
12215;BME280;6170;42.206;24.142;2023-04-07T02:58:41;98693.31;;;5.94;56.85
12215;BME280;6170;42.206;24.142;2023-04-07T03:01:09;98661.72;;;5.60;56.69
12215;BME280;6170;42.206;24.142;2023-04-07T03:03:36;98656.97;;;5.86;57.01
12215;BME280;6170;42.206;24.142;2023-04-07T03:06:04;98656.19;;;5.70;56.50
12215;BME280;6170;42.206;24.142;2023-04-07T03:08:32;98663.22;;;5.94;56.93
12215;BME280;6170;42.206;24.142;2023-04-07T03:11:00;98667.06;;;5.91;56.20
12215;BME280;6170;42.206;24.142;2023-04-07T03:13:28;98663.47;;;6.07;56.89
12215;BME280;6170;42.206;24.142;2023-04-07T03:15:55;98669.09;;;6.12;56.19
12215;BME280;6170;42.206;24.142;2023-04-07T03:18:23;98657.38;;;6.21;55.70
12215;BME280;6170;42.206;24.142;2023-04-07T03:20:50;98660.47;;;6.32;55.72
12215;BME280;6170;42.206;24.142;2023-04-07T03:23:19;98694.75;;;6.50;55.51
12215;BME280;6170;42.206;24.142;2023-04-07T03:25:48;98665.00;;;6.47;55.72
12215;BME280;6170;42.206;24.142;2023-04-07T03:28:17;98670.16;;;6.25;54.56
12215;BME280;6170;42.206;24.142;2023-04-07T03:30:44;98663.59;;;6.13;55.04
12215;BME280;6170;42.206;24.142;2023-04-07T03:33:11;98674.72;;;6.17;55.22
12215;BME280;6170;42.206;24.142;2023-04-07T03:35:39;98703.97;;;6.40;55.41
12215;BME280;6170;42.206;24.142;2023-04-07T03:38:06;98676.13;;;6.27;55.28
12215;BME280;6170;42.206;24.142;2023-04-07T03:40:33;98677.13;;;6.04;55.08
12215;BME280;6170;42.206;24.142;2023-04-07T03:43:00;98672.06;;;6.17;55.93
12215;BME280;6170;42.206;24.142;2023-04-07T03:45:29;98676.06;;;6.13;54.84
12215;BME280;6170;42.206;24.142;2023-04-07T03:47:56;98678.84;;;5.97;55.26
12215;BME280;6170;42.206;24.142;2023-04-07T03:50:23;98681.50;;;5.97;55.41
12215;BME280;6170;42.206;24.142;2023-04-07T03:52:51;98686.19;;;6.17;54.29
12215;BME280;6170;42.206;24.142;2023-04-07T03:55:18;98681.63;;;6.03;54.37
12215;BME280;6170;42.206;24.142;2023-04-07T03:57:45;98679.47;;;5.99;55.24
12215;BME280;6170;42.206;24.142;2023-04-07T04:00:13;98682.13;;;5.99;55.06
12215;BME280;6170;42.206;24.142;2023-04-07T04:02:42;98684.25;;;5.72;54.94
12215;BME280;6170;42.206;24.142;2023-04-07T04:05:09;98679.56;;;5.82;54.07
12215;BME280;6170;42.206;24.142;2023-04-07T04:07:36;98680.97;;;6.01;53.85
12215;BME280;6170;42.206;24.142;2023-04-07T04:10:04;98690.94;;;5.99;54.41
12215;BME280;6170;42.206;24.142;2023-04-07T04:12:32;98724.72;;;6.21;54.01
12215;BME280;6170;42.206;24.142;2023-04-07T04:14:59;98709.44;;;6.23;53.15
12215;BME280;6170;42.206;24.142;2023-04-07T04:17:26;98723.31;;;6.33;53.12
12215;BME280;6170;42.206;24.142;2023-04-07T04:19:55;98700.22;;;6.03;54.43
12215;BME280;6170;42.206;24.142;2023-04-07T04:22:22;98724.31;;;6.55;53.13
12215;BME280;6170;42.206;24.142;2023-04-07T04:24:49;98699.59;;;6.47;53.22
12215;BME280;6170;42.206;24.142;2023-04-07T04:27:16;98707.53;;;6.32;52.45
12215;BME280;6170;42.206;24.142;2023-04-07T04:29:43;98694.25;;;6.32;53.33
12215;BME280;6170;42.206;24.142;2023-04-07T04:32:11;98707.59;;;6.24;53.41
12215;BME280;6170;42.206;24.142;2023-04-07T04:34:38;98702.25;;;6.01;53.13
12215;BME280;6170;42.206;24.142;2023-04-07T04:37:08;98706.78;;;5.93;53.20
12215;BME280;6170;42.206;24.142;2023-04-07T04:39:35;98703.66;;;5.81;53.67
12215;BME280;6170;42.206;24.142;2023-04-07T04:42:03;98701.97;;;5.80;54.02
12215;BME280;6170;42.206;24.142;2023-04-07T04:44:31;98706.13;;;5.91;53.83
12215;BME280;6170;42.206;24.142;2023-04-07T04:46:58;98708.19;;;5.72;53.83
12215;BME280;6170;42.206;24.142;2023-04-07T04:49:25;98709.38;;;5.70;55.06
12215;BME280;6170;42.206;24.142;2023-04-07T04:51:52;98712.13;;;5.76;55.34
12215;BME280;6170;42.206;24.142;2023-04-07T04:54:21;98711.81;;;5.71;55.10
12215;BME280;6170;42.206;24.142;2023-04-07T04:56:48;98705.41;;;5.66;54.85
12215;BME280;6170;42.206;24.142;2023-04-07T04:59:15;98716.63;;;5.84;54.95
12215;BME280;6170;42.206;24.142;2023-04-07T05:01:42;98716.56;;;6.00;56.36
12215;BME280;6170;42.206;24.142;2023-04-07T05:04:10;98721.56;;;5.95;55.30
12215;BME280;6170;42.206;24.142;2023-04-07T05:06:37;98719.31;;;6.07;55.46
12215;BME280;6170;42.206;24.142;2023-04-07T05:09:04;98722.38;;;5.96;55.37
12215;BME280;6170;42.206;24.142;2023-04-07T05:11:33;98727.88;;;5.94;55.19
12215;BME280;6170;42.206;24.142;2023-04-07T05:14:00;98750.97;;;5.94;55.06
12215;BME280;6170;42.206;24.142;2023-04-07T05:16:27;98727.63;;;6.35;55.32
12215;BME280;6170;42.206;24.142;2023-04-07T05:18:54;98731.41;;;6.17;55.19
12215;BME280;6170;42.206;24.142;2023-04-07T05:21:22;98737.81;;;6.31;54.71
12215;BME280;6170;42.206;24.142;2023-04-07T05:23:49;98735.31;;;6.52;55.32
12215;BME280;6170;42.206;24.142;2023-04-07T05:26:16;98740.34;;;6.24;55.28
12215;BME280;6170;42.206;24.142;2023-04-07T05:28:45;98737.22;;;6.44;54.39
12215;BME280;6170;42.206;24.142;2023-04-07T05:31:12;98737.00;;;6.53;54.24
12215;BME280;6170;42.206;24.142;2023-04-07T05:33:39;98733.25;;;6.62;53.07
12215;BME280;6170;42.206;24.142;2023-04-07T05:36:06;98775.50;;;6.88;53.40
12215;BME280;6170;42.206;24.142;2023-04-07T05:38:34;98735.47;;;6.96;51.95
12215;BME280;6170;42.206;24.142;2023-04-07T05:41:01;98738.72;;;7.06;52.52
12215;BME280;6170;42.206;24.142;2023-04-07T05:43:28;98730.66;;;7.29;51.94
12215;BME280;6170;42.206;24.142;2023-04-07T05:45:57;98735.97;;;7.29;51.49
12215;BME280;6170;42.206;24.142;2023-04-07T05:48:24;98733.22;;;7.37;50.62
12215;BME280;6170;42.206;24.142;2023-04-07T05:50:51;98755.28;;;7.75;51.59
12215;BME280;6170;42.206;24.142;2023-04-07T05:53:18;98740.94;;;7.61;51.92
12215;BME280;6170;42.206;24.142;2023-04-07T05:55:45;98737.09;;;7.49;50.15
12215;BME280;6170;42.206;24.142;2023-04-07T05:58:13;98742.03;;;7.82;50.81
12215;BME280;6170;42.206;24.142;2023-04-07T06:00:40;98732.28;;;7.89;51.02
12215;BME280;6170;42.206;24.142;2023-04-07T06:03:09;98739.88;;;8.06;49.22
12215;BME280;6170;42.206;24.142;2023-04-07T06:05:36;98737.22;;;8.42;48.57
12215;BME280;6170;42.206;24.142;2023-04-07T06:08:07;98741.56;;;8.29;48.89
12215;BME280;6170;42.206;24.142;2023-04-07T06:10:35;98737.47;;;8.11;50.41
12215;BME280;6170;42.206;24.142;2023-04-07T06:13:02;98738.63;;;8.38;49.56
12215;BME280;6170;42.206;24.142;2023-04-07T06:15:29;98733.38;;;8.45;50.56
12215;BME280;6170;42.206;24.142;2023-04-07T06:17:56;98733.81;;;8.48;48.22
12215;BME280;6170;42.206;24.142;2023-04-07T06:20:25;98736.03;;;8.87;48.07
12215;BME280;6170;42.206;24.142;2023-04-07T06:22:53;98742.81;;;8.90;47.60
12215;BME280;6170;42.206;24.142;2023-04-07T06:25:20;98733.16;;;9.17;46.83
12215;BME280;6170;42.206;24.142;2023-04-07T06:27:47;98760.22;;;9.63;47.73
12215;BME280;6170;42.206;24.142;2023-04-07T06:30:15;98743.78;;;9.31;47.17
12215;BME280;6170;42.206;24.142;2023-04-07T06:32:42;98746.63;;;10.46;47.31
12215;BME280;6170;42.206;24.142;2023-04-07T06:35:09;98735.34;;;11.16;45.27
12215;BME280;6170;42.206;24.142;2023-04-07T06:37:38;98734.66;;;11.60;45.64
12215;BME280;6170;42.206;24.142;2023-04-07T06:40:06;98735.00;;;11.97;44.98
12215;BME280;6170;42.206;24.142;2023-04-07T06:42:33;98758.38;;;12.41;44.12
12215;BME280;6170;42.206;24.142;2023-04-07T06:45:01;98737.28;;;12.76;43.55
12215;BME280;6170;42.206;24.142;2023-04-07T06:47:28;98760.03;;;13.36;42.49
12215;BME280;6170;42.206;24.142;2023-04-07T06:49:55;98737.69;;;13.04;44.51
12215;BME280;6170;42.206;24.142;2023-04-07T06:52:22;98763.97;;;14.49;43.89
12215;BME280;6170;42.206;24.142;2023-04-07T06:54:51;98737.13;;;13.27;41.50
12215;BME280;6170;42.206;24.142;2023-04-07T06:57:18;98767.50;;;14.13;42.83
12215;BME280;6170;42.206;24.142;2023-04-07T06:59:45;98729.91;;;14.66;40.96
12215;BME280;6170;42.206;24.142;2023-04-07T07:02:12;98722.22;;;14.52;40.32
12215;BME280;6170;42.206;24.142;2023-04-07T07:04:39;98732.03;;;15.41;39.50
12215;BME280;6170;42.206;24.142;2023-04-07T07:07:06;98732.41;;;14.38;40.57
12215;BME280;6170;42.206;24.142;2023-04-07T07:09:33;98719.19;;;14.90;41.33
12215;BME280;6170;42.206;24.142;2023-04-07T07:12:01;98733.31;;;15.03;40.85
12215;BME280;6170;42.206;24.142;2023-04-07T07:14:28;98732.75;;;14.42;39.05
12215;BME280;6170;42.206;24.142;2023-04-07T07:16:55;98727.25;;;14.48;40.42
12215;BME280;6170;42.206;24.142;2023-04-07T07:19:22;98735.06;;;15.09;41.36
12215;BME280;6170;42.206;24.142;2023-04-07T07:21:49;98765.19;;;15.71;37.80
12215;BME280;6170;42.206;24.142;2023-04-07T07:24:16;98754.59;;;14.52;40.56
12215;BME280;6170;42.206;24.142;2023-04-07T07:26:43;98722.25;;;15.05;39.65
12215;BME280;6170;42.206;24.142;2023-04-07T07:29:12;98725.47;;;15.25;40.10
12215;BME280;6170;42.206;24.142;2023-04-07T07:31:39;98761.03;;;15.22;40.01
12215;BME280;6170;42.206;24.142;2023-04-07T07:34:06;98733.28;;;14.62;37.09
12215;BME280;6170;42.206;24.142;2023-04-07T07:36:33;98751.63;;;14.42;39.01
12215;BME280;6170;42.206;24.142;2023-04-07T07:39:00;98725.78;;;15.05;37.41
12215;BME280;6170;42.206;24.142;2023-04-07T07:41:27;98722.88;;;15.30;38.21
12215;BME280;6170;42.206;24.142;2023-04-07T07:43:54;98730.88;;;15.71;40.76
12215;BME280;6170;42.206;24.142;2023-04-07T07:46:22;98706.16;;;13.97;36.56
12215;BME280;6170;42.206;24.142;2023-04-07T07:48:51;98729.69;;;15.21;39.81
12215;BME280;6170;42.206;24.142;2023-04-07T07:51:18;98722.97;;;15.12;38.34
12215;BME280;6170;42.206;24.142;2023-04-07T07:53:46;98718.84;;;15.09;36.34
12215;BME280;6170;42.206;24.142;2023-04-07T07:56:13;98712.13;;;15.53;40.98
12215;BME280;6170;42.206;24.142;2023-04-07T07:58:40;98715.75;;;16.50;39.46
12215;BME280;6170;42.206;24.142;2023-04-07T08:01:07;98718.44;;;16.22;39.01
12215;BME280;6170;42.206;24.142;2023-04-07T08:03:35;98719.50;;;15.58;39.36
12215;BME280;6170;42.206;24.142;2023-04-07T08:06:02;98702.38;;;15.52;37.58
12215;BME280;6170;42.206;24.142;2023-04-07T08:08:30;98694.09;;;15.01;40.08
12215;BME280;6170;42.206;24.142;2023-04-07T08:10:57;98706.13;;;16.14;38.96
12215;BME280;6170;42.206;24.142;2023-04-07T08:13:23;98708.56;;;16.16;41.15
12215;BME280;6170;42.206;24.142;2023-04-07T08:15:51;98732.75;;;15.48;41.61
12215;BME280;6170;42.206;24.142;2023-04-07T08:18:18;98700.28;;;16.06;40.71
12215;BME280;6170;42.206;24.142;2023-04-07T08:20:46;98696.50;;;16.07;40.24
12215;BME280;6170;42.206;24.142;2023-04-07T08:23:13;98719.97;;;15.43;40.00
12215;BME280;6170;42.206;24.142;2023-04-07T08:25:40;98690.56;;;15.00;39.01
12215;BME280;6170;42.206;24.142;2023-04-07T08:28:07;98690.28;;;15.66;40.96
12215;BME280;6170;42.206;24.142;2023-04-07T08:30:34;98672.88;;;15.16;38.01
12215;BME280;6170;42.206;24.142;2023-04-07T08:33:04;98690.50;;;15.65;40.08
12215;BME280;6170;42.206;24.142;2023-04-07T08:35:31;98691.78;;;15.39;41.92
12215;BME280;6170;42.206;24.142;2023-04-07T08:37:59;98692.22;;;15.83;41.43
12215;BME280;6170;42.206;24.142;2023-04-07T08:40:27;98686.41;;;14.63;36.55
12215;BME280;6170;42.206;24.142;2023-04-07T08:42:56;98683.91;;;15.49;42.37
12215;BME280;6170;42.206;24.142;2023-04-07T08:45:26;98710.91;;;15.72;39.96
12215;BME280;6170;42.206;24.142;2023-04-07T08:47:55;98673.59;;;15.00;39.06
12215;BME280;6170;42.206;24.142;2023-04-07T08:50:25;98679.03;;;15.98;39.51
12215;BME280;6170;42.206;24.142;2023-04-07T08:52:54;98676.25;;;15.81;39.76
12215;BME280;6170;42.206;24.142;2023-04-07T08:55:22;98699.38;;;16.29;38.33
12215;BME280;6170;42.206;24.142;2023-04-07T08:57:51;98684.81;;;16.46;40.17
12215;BME280;6170;42.206;24.142;2023-04-07T09:00:19;98686.41;;;17.04;40.66
12215;BME280;6170;42.206;24.142;2023-04-07T09:02:46;98674.47;;;15.87;35.92
12215;BME280;6170;42.206;24.142;2023-04-07T09:05:16;98682.41;;;16.05;40.27
12215;BME280;6170;42.206;24.142;2023-04-07T09:07:43;98689.97;;;16.31;40.41
12215;BME280;6170;42.206;24.142;2023-04-07T09:10:10;98668.16;;;14.88;37.77
12215;BME280;6170;42.206;24.142;2023-04-07T09:12:39;98662.53;;;15.36;39.94
12215;BME280;6170;42.206;24.142;2023-04-07T09:15:07;98666.44;;;15.28;36.65
12215;BME280;6170;42.206;24.142;2023-04-07T09:17:34;98665.00;;;15.14;38.10
12215;BME280;6170;42.206;24.142;2023-04-07T09:20:02;98659.63;;;14.91;41.37
12215;BME280;6170;42.206;24.142;2023-04-07T09:22:34;98661.91;;;14.64;39.51
12215;BME280;6170;42.206;24.142;2023-04-07T09:25:15;98652.81;;;14.47;37.31
12215;BME280;6170;42.206;24.142;2023-04-07T09:27:59;98686.47;;;15.09;41.08
12215;BME280;6170;42.206;24.142;2023-04-07T09:30:28;98657.38;;;15.11;39.63
12215;BME280;6170;42.206;24.142;2023-04-07T09:32:56;98655.28;;;15.60;40.76
12215;BME280;6170;42.206;24.142;2023-04-07T09:35:23;98657.13;;;16.68;40.07
12215;BME280;6170;42.206;24.142;2023-04-07T09:38:03;98659.56;;;16.24;39.78
12215;BME280;6170;42.206;24.142;2023-04-07T09:40:30;98690.09;;;15.85;39.44
12215;BME280;6170;42.206;24.142;2023-04-07T09:42:58;98689.94;;;16.71;41.06
12215;BME280;6170;42.206;24.142;2023-04-07T09:45:26;98647.19;;;16.28;42.61
12215;BME280;6170;42.206;24.142;2023-04-07T09:47:53;98659.84;;;15.59;39.73
12215;BME280;6170;42.206;24.142;2023-04-07T09:50:31;98656.41;;;16.44;39.18
12215;BME280;6170;42.206;24.142;2023-04-07T09:53:00;98657.41;;;15.98;37.53
12215;BME280;6170;42.206;24.142;2023-04-07T09:55:27;98660.53;;;15.32;40.35
12215;BME280;6170;42.206;24.142;2023-04-07T09:57:55;98664.72;;;15.97;41.98
12215;BME280;6170;42.206;24.142;2023-04-07T10:00:23;98654.09;;;15.33;38.26
12215;BME280;6170;42.206;24.142;2023-04-07T10:02:51;98648.69;;;14.86;39.36
12215;BME280;6170;42.206;24.142;2023-04-07T10:05:18;98648.34;;;14.94;38.08
12215;BME280;6170;42.206;24.142;2023-04-07T10:07:47;98649.41;;;15.16;40.42
12215;BME280;6170;42.206;24.142;2023-04-07T10:10:14;98645.59;;;15.87;42.52
12215;BME280;6170;42.206;24.142;2023-04-07T10:12:41;98642.56;;;14.67;41.41
12215;BME280;6170;42.206;24.142;2023-04-07T10:15:11;98639.78;;;14.97;41.00
12215;BME280;6170;42.206;24.142;2023-04-07T10:17:44;98665.09;;;14.96;41.21
12215;BME280;6170;42.206;24.142;2023-04-07T10:20:13;98630.75;;;14.80;39.28
12215;BME280;6170;42.206;24.142;2023-04-07T10:22:41;98633.66;;;14.78;43.81
12215;BME280;6170;42.206;24.142;2023-04-07T10:25:12;98634.03;;;14.82;40.63
12215;BME280;6170;42.206;24.142;2023-04-07T10:27:43;98633.50;;;14.50;40.16
12215;BME280;6170;42.206;24.142;2023-04-07T10:30:19;98626.06;;;15.22;41.18
12215;BME280;6170;42.206;24.142;2023-04-07T10:32:49;98629.69;;;15.51;40.31
12215;BME280;6170;42.206;24.142;2023-04-07T10:35:17;98638.59;;;15.28;42.33
12215;BME280;6170;42.206;24.142;2023-04-07T10:38:09;98664.88;;;15.79;39.47
12215;BME280;6170;42.206;24.142;2023-04-07T10:40:38;98660.44;;;15.61;42.11
12215;BME280;6170;42.206;24.142;2023-04-07T10:43:06;98631.97;;;15.82;41.90
12215;BME280;6170;42.206;24.142;2023-04-07T10:45:54;98647.06;;;15.66;43.69
12215;BME280;6170;42.206;24.142;2023-04-07T10:48:29;98626.25;;;14.62;39.18
12215;BME280;6170;42.206;24.142;2023-04-07T10:51:16;98631.44;;;15.34;43.28
12215;BME280;6170;42.206;24.142;2023-04-07T10:57:12;98624.44;;;14.86;42.16
12215;BME280;6170;42.206;24.142;2023-04-07T10:59:41;98657.75;;;15.03;40.46
12215;BME280;6170;42.206;24.142;2023-04-07T11:02:32;98626.06;;;15.57;44.34
12215;BME280;6170;42.206;24.142;2023-04-07T11:05:01;98619.97;;;15.03;39.94
12215;BME280;6170;42.206;24.142;2023-04-07T11:07:45;98622.78;;;15.20;38.98
12215;BME280;6170;42.206;24.142;2023-04-07T11:10:14;98620.91;;;14.97;39.12
12215;BME280;6170;42.206;24.142;2023-04-07T11:12:44;98623.13;;;14.77;39.54
12215;BME280;6170;42.206;24.142;2023-04-07T11:15:21;98641.94;;;14.54;41.41
12215;BME280;6170;42.206;24.142;2023-04-07T11:20:51;98607.66;;;15.07;42.54
12215;BME280;6170;42.206;24.142;2023-04-07T11:23:20;98615.41;;;15.04;38.98
12215;BME280;6170;42.206;24.142;2023-04-07T11:25:50;98631.56;;;14.69;42.50
12215;BME280;6170;42.206;24.142;2023-04-07T11:28:18;98598.81;;;14.42;40.40
12215;BME280;6170;42.206;24.142;2023-04-07T11:30:47;98640.22;;;14.59;41.14
12215;BME280;6170;42.206;24.142;2023-04-07T11:33:17;98618.63;;;14.18;43.17
12215;BME280;6170;42.206;24.142;2023-04-07T11:35:54;98642.41;;;13.91;41.43
12215;BME280;6170;42.206;24.142;2023-04-07T11:38:23;98622.16;;;13.52;40.41
12215;BME280;6170;42.206;24.142;2023-04-07T11:40:50;98644.19;;;14.57;43.80
12215;BME280;6170;42.206;24.142;2023-04-07T11:43:19;98612.88;;;14.26;43.44
12215;BME280;6170;42.206;24.142;2023-04-07T11:46:02;98585.03;;;14.32;39.87
12215;BME280;6170;42.206;24.142;2023-04-07T11:48:31;98613.81;;;14.61;41.31
12215;BME280;6170;42.206;24.142;2023-04-07T11:51:01;98640.31;;;14.53;40.39
12215;BME280;6170;42.206;24.142;2023-04-07T11:53:31;98613.59;;;14.74;42.04
12215;BME280;6170;42.206;24.142;2023-04-07T11:56:02;98598.84;;;14.89;40.74
12215;BME280;6170;42.206;24.142;2023-04-07T11:58:30;98617.50;;;15.02;41.42
12215;BME280;6170;42.206;24.142;2023-04-07T12:00:58;98602.06;;;14.44;43.62
12215;BME280;6170;42.206;24.142;2023-04-07T12:03:29;98613.19;;;14.06;39.67
12215;BME280;6170;42.206;24.142;2023-04-07T12:05:56;98607.72;;;14.43;41.37
12215;BME280;6170;42.206;24.142;2023-04-07T12:08:37;98630.16;;;14.78;43.56
12215;BME280;6170;42.206;24.142;2023-04-07T12:11:05;98598.38;;;14.68;41.22
12215;BME280;6170;42.206;24.142;2023-04-07T12:13:32;98599.41;;;15.14;39.83
12215;BME280;6170;42.206;24.142;2023-04-07T12:15:59;98630.19;;;15.88;40.59
12215;BME280;6170;42.206;24.142;2023-04-07T12:18:27;98608.72;;;16.09;40.92
12215;BME280;6170;42.206;24.142;2023-04-07T12:20:55;98626.91;;;15.86;41.95
12215;BME280;6170;42.206;24.142;2023-04-07T12:23:23;98607.63;;;15.19;39.70
12215;BME280;6170;42.206;24.142;2023-04-07T12:25:52;98608.47;;;15.08;40.34
12215;BME280;6170;42.206;24.142;2023-04-07T12:28:19;98609.06;;;14.87;40.16
12215;BME280;6170;42.206;24.142;2023-04-07T12:30:46;98628.06;;;15.26;40.26
12215;BME280;6170;42.206;24.142;2023-04-07T12:33:13;98608.72;;;14.95;38.18
12215;BME280;6170;42.206;24.142;2023-04-07T12:35:40;98604.00;;;14.90;38.75
12215;BME280;6170;42.206;24.142;2023-04-07T12:38:07;98593.34;;;14.95;39.95
12215;BME280;6170;42.206;24.142;2023-04-07T12:40:34;98596.84;;;14.84;39.90
12215;BME280;6170;42.206;24.142;2023-04-07T12:43:04;98608.81;;;15.35;38.27
12215;BME280;6170;42.206;24.142;2023-04-07T12:45:31;98593.88;;;15.44;40.31
12215;BME280;6170;42.206;24.142;2023-04-07T12:47:59;98618.69;;;15.17;38.88
12215;BME280;6170;42.206;24.142;2023-04-07T12:50:26;98576.56;;;14.81;40.74
12215;BME280;6170;42.206;24.142;2023-04-07T12:52:53;98622.31;;;14.76;38.59
12215;BME280;6170;42.206;24.142;2023-04-07T12:55:21;98591.88;;;15.27;42.73
12215;BME280;6170;42.206;24.142;2023-04-07T12:57:48;98591.69;;;14.94;38.83
12215;BME280;6170;42.206;24.142;2023-04-07T13:00:16;98620.06;;;14.97;40.30
12215;BME280;6170;42.206;24.142;2023-04-07T13:02:43;98584.97;;;15.32;41.18
12215;BME280;6170;42.206;24.142;2023-04-07T13:05:10;98608.53;;;15.36;39.34
12215;BME280;6170;42.206;24.142;2023-04-07T13:07:37;98579.78;;;15.42;38.79
12215;BME280;6170;42.206;24.142;2023-04-07T13:10:05;98578.44;;;15.67;40.68
12215;BME280;6170;42.206;24.142;2023-04-07T13:12:34;98602.47;;;15.81;38.99
12215;BME280;6170;42.206;24.142;2023-04-07T13:15:01;98572.53;;;16.10;39.43
12215;BME280;6170;42.206;24.142;2023-04-07T13:17:29;98580.72;;;16.15;39.26
12215;BME280;6170;42.206;24.142;2023-04-07T13:19:56;98570.53;;;15.38;38.51